createdAt,value
2018-04-18T05:43:26.455Z,18.60
2018-04-18T05:45:58.383Z,19.00
2018-04-18T05:54:49.496Z,19.50
2018-04-18T05:57:20.839Z,18.60
2018-04-18T05:59:53.565Z,16.80
2018-04-18T06:02:25.747Z,16.10
2018-04-18T06:04:57.713Z,15.30
2018-04-18T06:07:29.282Z,14.90
2018-04-18T06:10:01.056Z,17.50
2018-04-18T06:12:32.366Z,17.40
2018-04-18T06:15:03.674Z,19.50
2018-04-18T06:17:34.676Z,21.20
2018-04-18T06:20:07.274Z,23.40
2018-04-18T06:22:38.563Z,23.30
2018-04-18T06:25:09.498Z,24.00
2018-04-18T06:27:40.730Z,23.80
2018-04-18T06:30:11.143Z,23.40
2018-04-18T06:32:41.997Z,22.90
2018-04-18T06:35:13.087Z,22.50
2018-04-18T06:37:45.460Z,20.50
2018-04-18T06:40:17.743Z,20.10
2018-04-18T06:42:49.028Z,20.00
2018-04-18T06:45:20.338Z,19.80
2018-04-18T06:47:52.318Z,19.40
2018-04-18T06:50:23.453Z,18.80
2018-04-18T06:52:54.425Z,18.30
2018-04-18T06:55:25.223Z,17.80
2018-04-18T06:57:54.935Z,17.30
2018-04-18T07:00:26.440Z,17.10
2018-04-18T07:02:57.526Z,16.80
2018-04-18T07:05:29.152Z,16.80
2018-04-18T07:08:00.139Z,16.80
2018-04-18T07:10:30.649Z,16.90
2018-04-18T07:13:01.483Z,16.80
2018-04-18T07:15:32.627Z,17.00
2018-04-18T07:18:03.783Z,17.10
2018-04-18T07:20:35.225Z,17.10
2018-04-18T07:23:05.637Z,17.20
2018-04-18T07:25:37.404Z,17.50
2018-04-18T07:28:08.942Z,17.40
2018-04-18T07:30:40.893Z,17.80
2018-04-18T07:33:12.200Z,17.90
2018-04-18T07:35:42.816Z,17.90
2018-04-18T07:38:13.678Z,17.90
2018-04-18T07:40:45.106Z,18.30
2018-04-18T07:43:15.950Z,18.30
2018-04-18T07:45:47.000Z,18.50
2018-04-18T07:48:18.327Z,18.70
2018-04-18T07:50:49.862Z,18.90
2018-04-18T07:53:21.260Z,19.00
2018-04-18T07:55:52.434Z,19.20
2018-04-18T07:58:23.513Z,19.30
2018-04-18T08:00:55.125Z,19.50
2018-04-18T08:03:25.970Z,19.70
2018-04-18T08:05:57.338Z,19.80
2018-04-18T08:08:28.578Z,19.70
2018-04-18T08:10:59.671Z,19.90
2018-04-18T08:13:30.723Z,20.10
2018-04-18T08:16:01.546Z,20.20
2018-04-18T08:18:32.266Z,20.30
2018-04-18T08:21:04.699Z,20.60
2018-04-18T08:23:36.062Z,20.70
2018-04-18T08:26:07.146Z,20.80
2018-04-18T08:28:37.733Z,20.90
2018-04-18T08:31:08.926Z,20.90
2018-04-18T08:33:40.332Z,21.20
2018-04-18T08:36:11.607Z,21.10
2018-04-18T08:38:42.678Z,21.20
2018-04-18T08:41:14.330Z,21.40
2018-04-18T08:43:46.123Z,21.50
2018-04-18T08:46:17.272Z,21.50
2018-04-18T08:48:49.804Z,21.60
2018-04-18T08:51:21.751Z,21.70
2018-04-18T08:53:53.894Z,21.60
2018-04-18T08:56:26.416Z,21.80
2018-04-18T08:58:57.542Z,21.90
2018-04-18T09:01:28.749Z,22.00
2018-04-18T09:04:00.465Z,21.90
2018-04-18T09:06:32.283Z,21.90
2018-04-18T09:09:03.242Z,22.00
2018-04-18T09:11:34.586Z,22.10
2018-04-18T09:14:05.395Z,22.10
2018-04-18T09:16:36.500Z,22.20
2018-04-18T09:19:07.943Z,22.10
2018-04-18T09:21:39.376Z,22.10
2018-04-18T09:24:10.046Z,22.20
2018-04-18T09:26:40.859Z,22.20
2018-04-18T09:29:11.549Z,22.20
2018-04-18T09:31:42.607Z,22.20
2018-04-18T09:34:13.458Z,22.30
2018-04-18T09:36:45.338Z,22.30
2018-04-18T09:39:16.585Z,22.20
2018-04-18T09:41:48.608Z,22.40
2018-04-18T09:44:19.817Z,22.40
2018-04-18T09:46:52.166Z,22.50
2018-04-18T09:49:25.185Z,22.40
2018-04-18T09:51:56.727Z,22.60
2018-04-18T09:54:27.755Z,22.50
2018-04-18T09:56:59.874Z,22.50
2018-04-18T09:59:31.615Z,22.60
2018-04-18T10:02:08.171Z,22.60
2018-04-18T10:04:45.183Z,22.60
2018-04-18T10:07:16.859Z,22.60
2018-04-18T10:09:48.583Z,22.60
2018-04-18T10:12:19.879Z,22.60
2018-04-18T10:14:51.138Z,22.70
2018-04-18T10:17:23.375Z,22.70
2018-04-18T10:19:56.676Z,22.80
2018-04-18T10:22:28.980Z,22.90
2018-04-18T10:25:03.058Z,22.90
2018-04-18T10:27:35.223Z,23.00
2018-04-18T10:30:07.223Z,23.10
2018-04-18T10:32:39.670Z,23.00
2018-04-18T10:35:12.560Z,22.90
2018-04-18T10:37:46.712Z,23.00
2018-04-18T10:40:19.460Z,23.00
2018-04-18T10:42:52.745Z,23.10
2018-04-18T10:45:26.193Z,23.10
2018-04-18T10:47:59.342Z,23.10
2018-04-18T10:50:32.073Z,23.20
2018-04-18T10:53:05.176Z,23.20
2018-04-18T10:55:38.301Z,23.30
2018-04-18T10:58:13.179Z,23.30
2018-04-18T11:00:46.880Z,23.20
2018-04-18T11:03:19.555Z,23.20
2018-04-18T11:05:52.754Z,23.20
2018-04-18T11:08:25.296Z,23.10
2018-04-18T11:10:57.447Z,23.10
2018-04-18T11:13:29.457Z,23.10
2018-04-18T11:16:04.034Z,23.20
2018-04-18T11:18:37.158Z,23.10
2018-04-18T11:21:09.846Z,23.20
2018-04-18T11:23:45.438Z,23.10
2018-04-18T11:26:18.240Z,23.10
2018-04-18T11:28:51.132Z,23.20
2018-04-18T11:31:23.429Z,23.10
2018-04-18T11:33:55.785Z,23.20
2018-04-18T11:36:28.011Z,23.20
2018-04-18T11:39:00.501Z,23.30
2018-04-18T11:41:33.412Z,23.30
2018-04-18T11:44:04.366Z,23.40
2018-04-18T11:46:35.780Z,23.50
2018-04-18T11:49:08.403Z,23.50
2018-04-18T11:51:40.721Z,23.50
2018-04-18T11:54:12.351Z,23.60
2018-04-18T11:56:43.633Z,23.60
2018-04-18T11:59:15.756Z,23.60
2018-04-18T12:01:47.924Z,23.60
2018-04-18T12:04:19.314Z,23.50
2018-04-18T12:06:53.038Z,23.50
2018-04-18T12:09:25.237Z,23.50
2018-04-18T12:11:56.403Z,23.40
2018-04-18T12:14:27.493Z,23.40
2018-04-18T12:16:58.647Z,23.40
2018-04-18T12:19:30.788Z,23.40
2018-04-18T12:22:02.087Z,23.40
2018-04-18T12:24:34.227Z,23.50
2018-04-18T12:27:05.335Z,23.40
2018-04-18T12:29:37.336Z,23.40
2018-04-18T12:32:08.280Z,23.50
2018-04-18T12:34:39.106Z,23.50
2018-04-18T12:37:10.292Z,23.50
2018-04-18T12:39:41.631Z,23.60
2018-04-18T12:42:14.877Z,23.70
2018-04-18T12:44:45.508Z,23.70
2018-04-18T12:47:16.819Z,23.70
2018-04-18T12:49:47.803Z,23.80
2018-04-18T12:52:19.129Z,23.90
2018-04-18T12:54:50.438Z,23.90
2018-04-18T12:57:21.427Z,24.00
2018-04-18T12:59:52.466Z,24.00
2018-04-18T13:02:23.939Z,24.00
2018-04-18T13:04:55.660Z,24.00
2018-04-18T13:07:27.507Z,24.00
2018-04-18T13:09:58.828Z,24.10
2018-04-18T13:12:30.160Z,24.20
2018-04-18T13:15:01.633Z,24.20
2018-04-18T13:17:33.503Z,24.20
2018-04-18T13:20:05.385Z,24.30
2018-04-18T13:22:37.175Z,24.30
2018-04-18T13:25:08.861Z,24.30
2018-04-18T13:27:40.338Z,24.20
2018-04-18T13:30:12.878Z,24.20
2018-04-18T13:32:44.575Z,24.30
2018-04-18T13:35:16.434Z,24.30
2018-04-18T13:37:49.274Z,24.50
2018-04-18T13:40:20.548Z,24.40
2018-04-18T13:42:51.983Z,24.30
2018-04-18T13:45:24.277Z,24.30
2018-04-18T13:47:55.594Z,24.20
2018-04-18T13:50:27.688Z,24.20
2018-04-18T13:52:59.132Z,24.30
2018-04-18T13:55:30.634Z,24.30
2018-04-18T13:58:02.847Z,24.30
2018-04-18T14:00:35.199Z,24.30
2018-04-18T14:03:07.276Z,24.30
2018-04-18T14:05:40.042Z,24.30
2018-04-18T14:08:11.975Z,24.20
2018-04-18T14:10:45.081Z,24.40
2018-04-18T14:13:18.189Z,24.30
2018-04-18T14:15:52.334Z,24.40
2018-04-18T14:18:24.383Z,24.30
2018-04-18T14:20:55.592Z,24.30
2018-04-18T14:23:27.516Z,24.30
2018-04-18T14:25:59.758Z,24.30
2018-04-18T14:28:33.054Z,24.40
2018-04-18T14:31:05.220Z,24.40
2018-04-18T14:33:38.743Z,24.60
2018-04-18T14:36:11.461Z,24.60
2018-04-18T14:38:43.206Z,24.60
2018-04-18T14:41:15.557Z,24.60
2018-04-18T14:43:47.838Z,24.70
2018-04-18T14:46:19.889Z,24.70
2018-04-18T14:48:51.974Z,24.70
2018-04-18T14:51:24.257Z,24.70
2018-04-18T14:53:56.227Z,24.70
2018-04-18T14:56:28.560Z,24.70
2018-04-18T14:59:01.214Z,24.70
2018-04-18T15:01:33.987Z,24.80
2018-04-18T15:04:06.044Z,24.80
2018-04-18T15:06:38.309Z,24.80
2018-04-18T15:09:10.195Z,24.90
2018-04-18T15:11:43.846Z,24.80
2018-04-18T15:14:16.675Z,24.80
2018-04-18T15:16:49.735Z,24.70
2018-04-18T15:19:21.905Z,24.70
2018-04-18T15:21:54.839Z,24.70
2018-04-18T15:24:27.850Z,24.80
2018-04-18T15:27:00.042Z,24.80
2018-04-18T15:29:32.466Z,24.80
2018-04-18T15:32:05.466Z,24.80
2018-04-18T15:34:37.665Z,24.80
2018-04-18T15:37:11.335Z,24.80
2018-04-18T15:39:43.233Z,24.70
2018-04-18T15:42:16.533Z,24.70
2018-04-18T15:44:49.494Z,24.80
2018-04-18T15:47:21.742Z,24.80
2018-04-18T15:49:54.430Z,24.80
2018-04-18T15:52:26.766Z,24.70
2018-04-18T15:54:59.017Z,24.70
2018-04-18T15:57:31.586Z,24.70
2018-04-18T16:00:03.310Z,24.50
2018-04-18T16:02:35.245Z,24.50
2018-04-18T16:05:06.548Z,24.40
2018-04-18T16:07:38.284Z,24.40
2018-04-18T16:10:10.063Z,24.50
2018-04-18T16:12:42.172Z,24.50
2018-04-18T16:15:13.522Z,24.50
2018-04-18T16:17:45.357Z,24.50
2018-04-18T16:20:17.370Z,24.50
2018-04-18T16:22:50.330Z,24.40
2018-04-18T16:25:22.909Z,24.40
2018-04-18T16:27:54.576Z,24.40
2018-04-18T16:30:35.674Z,24.30
2018-04-18T16:33:08.753Z,24.10
2018-04-18T16:35:39.900Z,24.00
2018-04-18T16:38:11.969Z,24.10
2018-04-18T16:40:43.585Z,23.90
2018-04-18T16:43:16.046Z,24.00
2018-04-18T16:45:48.614Z,24.00
2018-04-18T16:48:19.998Z,23.90
2018-04-18T16:50:51.269Z,23.80
2018-04-18T16:53:23.216Z,23.60
2018-04-18T16:55:54.336Z,23.50
2018-04-18T16:58:26.043Z,23.30
2018-04-18T17:00:58.040Z,23.10
2018-04-18T17:03:29.978Z,23.00
2018-04-18T17:06:01.219Z,23.00
2018-04-18T17:08:32.916Z,22.90
2018-04-18T17:11:04.615Z,22.80
2018-04-18T17:13:35.514Z,22.70
2018-04-18T17:16:06.824Z,22.60
2018-04-18T17:18:38.071Z,22.70
2018-04-18T17:21:09.714Z,22.60
2018-04-18T17:23:41.299Z,22.50
2018-04-18T17:26:12.880Z,22.60
2018-04-18T17:28:44.375Z,22.90
2018-04-18T17:31:15.792Z,22.90
2018-04-18T17:33:47.578Z,23.00
2018-04-18T17:36:19.393Z,22.90
2018-04-18T17:38:52.293Z,22.70
2018-04-18T17:41:23.442Z,22.70
2018-04-18T17:43:55.410Z,22.70
2018-04-18T17:46:27.661Z,22.70
2018-04-18T17:48:59.112Z,22.60
2018-04-18T17:51:30.157Z,22.60
2018-04-18T17:54:01.622Z,22.60
2018-04-18T17:56:33.703Z,22.50
2018-04-18T17:59:05.348Z,22.50
2018-04-18T18:01:38.778Z,22.30
2018-04-18T18:04:10.157Z,22.20
2018-04-18T18:06:41.170Z,22.20
2018-04-18T18:09:12.476Z,22.10
2018-04-18T18:11:43.594Z,21.90
2018-04-18T18:14:14.766Z,21.70
2018-04-18T18:16:46.042Z,21.60
2018-04-18T18:19:18.894Z,21.40
2018-04-18T18:21:50.380Z,21.30
2018-04-18T18:24:21.927Z,21.10
2018-04-18T18:26:53.204Z,21.00
2018-04-18T18:29:24.499Z,20.90
2018-04-18T18:31:55.348Z,20.80
2018-04-18T18:34:27.198Z,20.60
2018-04-18T18:36:58.451Z,20.50
2018-04-18T18:39:29.405Z,20.50
2018-04-18T18:42:00.483Z,20.30
2018-04-18T18:44:31.667Z,20.20
2018-04-18T18:47:03.585Z,19.80
2018-04-18T18:49:34.254Z,19.70
2018-04-18T18:52:05.558Z,19.60
2018-04-18T18:54:36.765Z,19.50
2018-04-18T18:57:07.811Z,19.30
2018-04-18T18:59:39.104Z,19.10
2018-04-18T19:02:11.074Z,18.70
2018-04-18T19:04:41.692Z,18.70
2018-04-18T19:07:13.161Z,18.60
2018-04-18T19:09:44.279Z,18.50
2018-04-18T19:12:15.423Z,18.30
2018-04-18T19:14:46.526Z,18.20
2018-04-18T19:17:17.706Z,18.20
2018-04-18T19:19:49.058Z,18.10
2018-04-18T19:22:20.633Z,18.00
2018-04-18T19:24:51.808Z,17.90
2018-04-18T19:27:23.573Z,17.80
2018-04-18T19:29:55.529Z,17.70
2018-04-18T19:32:24.858Z,17.60
2018-04-18T19:34:56.190Z,17.60
2018-04-18T19:37:27.320Z,17.50
2018-04-18T19:39:58.468Z,17.30
2018-04-18T19:42:30.213Z,17.00
2018-04-18T19:45:01.273Z,16.90
2018-04-18T19:47:32.530Z,16.80
2018-04-18T19:50:05.354Z,16.70
2018-04-18T19:52:36.335Z,16.60
2018-04-18T19:55:07.564Z,16.40
2018-04-18T19:57:39.599Z,16.20
2018-04-18T20:00:10.508Z,16.20
2018-04-18T20:02:42.071Z,16.20
2018-04-18T20:05:13.530Z,16.10
2018-04-18T20:07:44.654Z,16.00
2018-04-18T20:10:16.572Z,15.80
2018-04-18T20:12:47.742Z,15.70
2018-04-18T20:15:18.705Z,15.70
2018-04-18T20:17:49.964Z,15.70
2018-04-18T20:20:21.088Z,15.60
2018-04-18T20:22:52.174Z,15.50
2018-04-18T20:25:24.286Z,15.30
2018-04-18T20:27:56.165Z,15.20
2018-04-18T20:30:27.424Z,15.20
2018-04-18T20:32:58.524Z,15.20
2018-04-18T20:35:29.545Z,15.10
2018-04-18T20:38:00.558Z,15.00
2018-04-18T20:40:31.876Z,15.00
2018-04-18T20:43:02.704Z,14.90
2018-04-18T20:45:34.009Z,14.80
2018-04-18T20:48:05.352Z,14.70
2018-04-18T20:50:36.539Z,14.70
2018-04-18T20:53:07.483Z,14.60
2018-04-18T20:55:38.799Z,14.60
2018-04-18T20:58:09.943Z,14.50
2018-04-18T21:00:40.929Z,14.50
2018-04-18T21:03:13.221Z,14.30
2018-04-18T21:05:44.706Z,14.30
2018-04-18T21:08:15.535Z,14.30
2018-04-18T21:10:46.660Z,14.20
2018-04-18T21:13:17.852Z,14.20
2018-04-18T21:15:50.246Z,14.10
2018-04-18T21:18:21.156Z,14.00
2018-04-18T21:20:52.428Z,14.00
2018-04-18T21:23:24.977Z,13.90
2018-04-18T21:25:55.875Z,13.80
2018-04-18T21:28:27.639Z,13.70
2018-04-18T21:30:59.644Z,13.60
2018-04-18T21:33:30.500Z,13.60
2018-04-18T21:36:01.795Z,13.60
2018-04-18T21:38:32.597Z,13.50
2018-04-18T21:41:03.915Z,13.40
2018-04-18T21:43:34.850Z,13.30
2018-04-18T21:46:06.010Z,13.30
2018-04-18T21:48:37.070Z,13.20
2018-04-18T21:51:08.527Z,13.20
2018-04-18T21:53:39.738Z,13.10
2018-04-18T21:56:10.923Z,13.00
2018-04-18T21:58:42.263Z,13.00
2018-04-18T22:01:13.088Z,12.90
2018-04-18T22:03:44.282Z,12.90
2018-04-18T22:06:15.494Z,12.80
2018-04-18T22:08:46.926Z,12.70
2018-04-18T22:11:18.901Z,12.70
2018-04-18T22:13:50.870Z,12.70
2018-04-18T22:16:22.522Z,12.70
2018-04-18T22:18:54.330Z,12.60
2018-04-18T22:21:25.400Z,12.60
2018-04-18T22:23:56.743Z,12.60
2018-04-18T22:26:27.886Z,12.60
2018-04-18T22:28:58.969Z,12.60
2018-04-18T22:31:31.037Z,12.50
2018-04-18T22:34:02.186Z,12.40
2018-04-18T22:36:33.409Z,12.50
2018-04-18T22:39:05.565Z,12.50
2018-04-18T22:41:37.371Z,12.40
2018-04-18T22:44:08.256Z,12.40
2018-04-18T22:46:39.159Z,12.40
2018-04-18T22:49:10.295Z,12.40
2018-04-18T22:51:41.049Z,12.40
2018-04-18T22:54:12.064Z,12.40
2018-04-18T22:56:42.766Z,12.40
2018-04-18T22:59:14.566Z,12.30
2018-04-18T23:01:45.996Z,12.20
2018-04-18T23:04:17.218Z,12.30
2018-04-18T23:06:49.159Z,12.20
2018-04-18T23:09:20.099Z,12.10
2018-04-18T23:11:51.005Z,12.20
2018-04-18T23:14:22.073Z,12.10
2018-04-18T23:16:52.981Z,12.10
2018-04-18T23:19:23.975Z,12.10
2018-04-18T23:21:55.306Z,12.00
2018-04-18T23:24:26.269Z,12.00
2018-04-18T23:26:57.473Z,12.00
2018-04-18T23:29:28.413Z,12.00
2018-04-18T23:31:59.602Z,12.00
2018-04-18T23:34:31.328Z,12.00
2018-04-18T23:37:03.288Z,11.90
2018-04-18T23:39:35.000Z,11.90
2018-04-18T23:42:06.036Z,11.90
2018-04-18T23:44:35.533Z,11.90
2018-04-18T23:47:06.775Z,11.80
2018-04-18T23:49:37.845Z,11.80
2018-04-18T23:52:09.335Z,11.80
2018-04-18T23:54:41.190Z,11.70
2018-04-18T23:57:12.288Z,11.60
2018-04-18T23:59:43.089Z,11.60
